sensor_id;sensor_type;location;lat;lon;timestamp;pressure;altitude;pressure_sealevel;temperature;humidity
75006;BME280;63553;51.814;4.600;2024-02-16T00:00:11;101050.34;;;11.66;81.31
75006;BME280;63553;51.814;4.600;2024-02-16T00:02:38;101049.91;;;11.73;81.04
75006;BME280;63553;51.814;4.600;2024-02-16T00:05:05;101039.44;;;11.69;81.25
75006;BME280;63553;51.814;4.600;2024-02-16T00:07:32;101052.53;;;11.78;81.18
75006;BME280;63553;51.814;4.600;2024-02-16T00:09:58;101052.69;;;11.73;81.05
75006;BME280;63553;51.814;4.600;2024-02-16T00:12:23;101055.81;;;11.80;82.07
75006;BME280;63553;51.814;4.600;2024-02-16T00:14:48;101059.06;;;11.73;80.84
75006;BME280;63553;51.814;4.600;2024-02-16T00:17:14;101062.81;;;11.68;80.87
75006;BME280;63553;51.814;4.600;2024-02-16T00:19:39;101055.56;;;11.59;80.95
75006;BME280;63553;51.814;4.600;2024-02-16T00:22:05;101054.75;;;11.67;80.93
75006;BME280;63553;51.814;4.600;2024-02-16T00:24:33;101044.66;;;11.71;80.67
75006;BME280;63553;51.814;4.600;2024-02-16T00:26:58;101048.38;;;11.58;81.04
75006;BME280;63553;51.814;4.600;2024-02-16T00:29:24;101055.75;;;11.62;80.97
75006;BME280;63553;51.814;4.600;2024-02-16T00:31:49;101059.81;;;11.56;81.25
75006;BME280;63553;51.814;4.600;2024-02-16T00:34:15;101058.19;;;11.55;81.32
75006;BME280;63553;51.814;4.600;2024-02-16T00:36:41;101051.66;;;11.60;81.05
75006;BME280;63553;51.814;4.600;2024-02-16T00:39:06;101046.06;;;11.51;81.10
75006;BME280;63553;51.814;4.600;2024-02-16T00:41:31;101036.72;;;11.56;80.79
75006;BME280;63553;51.814;4.600;2024-02-16T00:43:57;101044.09;;;11.52;80.58
75006;BME280;63553;51.814;4.600;2024-02-16T00:46:23;101044.75;;;11.49;81.14
75006;BME280;63553;51.814;4.600;2024-02-16T00:48:49;101040.63;;;11.46;81.19
75006;BME280;63553;51.814;4.600;2024-02-16T00:51:15;101029.00;;;11.53;80.72
75006;BME280;63553;51.814;4.600;2024-02-16T00:53:40;101036.41;;;11.49;80.89
75006;BME280;63553;51.814;4.600;2024-02-16T00:56:06;101025.09;;;11.54;80.80
75006;BME280;63553;51.814;4.600;2024-02-16T00:58:32;101014.59;;;11.51;80.62
75006;BME280;63553;51.814;4.600;2024-02-16T01:00:57;101021.81;;;11.52;80.86
75006;BME280;63553;51.814;4.600;2024-02-16T01:03:23;101015.75;;;11.58;80.24
75006;BME280;63553;51.814;4.600;2024-02-16T01:05:48;101022.16;;;11.59;80.08
75006;BME280;63553;51.814;4.600;2024-02-16T01:08:14;101020.34;;;11.54;80.59
75006;BME280;63553;51.814;4.600;2024-02-16T01:10:39;101007.84;;;11.43;80.52
75006;BME280;63553;51.814;4.600;2024-02-16T01:13:04;101017.69;;;11.49;80.49
75006;BME280;63553;51.814;4.600;2024-02-16T01:15:30;101028.84;;;11.49;80.41
75006;BME280;63553;51.814;4.600;2024-02-16T01:17:56;101011.53;;;11.61;80.68
75006;BME280;63553;51.814;4.600;2024-02-16T01:20:21;101001.16;;;11.53;79.95
75006;BME280;63553;51.814;4.600;2024-02-16T01:22:46;100995.44;;;11.49;80.50
75006;BME280;63553;51.814;4.600;2024-02-16T01:25:11;100980.53;;;11.54;80.15
75006;BME280;63553;51.814;4.600;2024-02-16T01:27:37;101003.66;;;11.54;80.26
75006;BME280;63553;51.814;4.600;2024-02-16T01:30:03;101001.84;;;11.67;80.03
75006;BME280;63553;51.814;4.600;2024-02-16T01:32:28;101003.31;;;11.64;80.49
75006;BME280;63553;51.814;4.600;2024-02-16T01:34:53;101008.88;;;11.64;80.82
75006;BME280;63553;51.814;4.600;2024-02-16T01:37:19;101015.09;;;11.53;80.93
75006;BME280;63553;51.814;4.600;2024-02-16T01:39:44;101009.88;;;11.51;80.88
75006;BME280;63553;51.814;4.600;2024-02-16T01:42:10;101005.91;;;11.52;81.21
75006;BME280;63553;51.814;4.600;2024-02-16T01:44:36;100998.56;;;11.48;81.14
75006;BME280;63553;51.814;4.600;2024-02-16T01:47:03;100992.34;;;11.51;80.53
75006;BME280;63553;51.814;4.600;2024-02-16T01:49:29;100997.53;;;11.44;80.53
75006;BME280;63553;51.814;4.600;2024-02-16T01:51:54;100999.03;;;11.41;80.61
75006;BME280;63553;51.814;4.600;2024-02-16T01:54:20;101010.50;;;11.40;81.09
75006;BME280;63553;51.814;4.600;2024-02-16T01:56:46;101000.31;;;11.35;80.99
75006;BME280;63553;51.814;4.600;2024-02-16T01:59:11;100993.28;;;11.38;80.65
75006;BME280;63553;51.814;4.600;2024-02-16T02:01:37;100997.69;;;11.30;81.46
75006;BME280;63553;51.814;4.600;2024-02-16T02:04:03;101001.44;;;11.26;80.82
75006;BME280;63553;51.814;4.600;2024-02-16T02:06:28;100999.16;;;11.28;81.30
75006;BME280;63553;51.814;4.600;2024-02-16T02:08:54;101005.84;;;11.18;81.78
75006;BME280;63553;51.814;4.600;2024-02-16T02:11:19;101000.44;;;11.22;81.45
75006;BME280;63553;51.814;4.600;2024-02-16T02:13:44;100992.72;;;11.10;81.54
75006;BME280;63553;51.814;4.600;2024-02-16T02:16:10;100993.06;;;11.17;81.31
75006;BME280;63553;51.814;4.600;2024-02-16T02:18:36;100992.75;;;11.19;80.69
75006;BME280;63553;51.814;4.600;2024-02-16T02:21:01;100996.34;;;11.19;80.64
75006;BME280;63553;51.814;4.600;2024-02-16T02:23:26;100993.06;;;11.17;80.94
75006;BME280;63553;51.814;4.600;2024-02-16T02:25:52;100995.50;;;11.10;80.98
75006;BME280;63553;51.814;4.600;2024-02-16T02:28:18;100985.69;;;11.12;80.80
75006;BME280;63553;51.814;4.600;2024-02-16T02:30:45;100990.09;;;11.13;80.77
75006;BME280;63553;51.814;4.600;2024-02-16T02:33:11;100986.50;;;11.13;80.47
75006;BME280;63553;51.814;4.600;2024-02-16T02:35:38;100981.91;;;11.17;80.86
75006;BME280;63553;51.814;4.600;2024-02-16T02:38:03;100980.91;;;11.04;80.76
75006;BME280;63553;51.814;4.600;2024-02-16T02:40:30;100981.22;;;11.03;81.42
75006;BME280;63553;51.814;4.600;2024-02-16T02:42:55;100980.75;;;11.09;80.75
75006;BME280;63553;51.814;4.600;2024-02-16T02:45:20;100974.38;;;11.09;80.63
75006;BME280;63553;51.814;4.600;2024-02-16T02:47:46;100976.16;;;11.05;80.98
75006;BME280;63553;51.814;4.600;2024-02-16T02:50:11;100977.34;;;11.21;81.22
75006;BME280;63553;51.814;4.600;2024-02-16T02:52:37;100975.84;;;11.06;80.94
75006;BME280;63553;51.814;4.600;2024-02-16T02:55:03;100968.81;;;11.09;80.98
75006;BME280;63553;51.814;4.600;2024-02-16T02:57:28;100968.31;;;11.07;80.82
75006;BME280;63553;51.814;4.600;2024-02-16T03:00:02;100965.81;;;10.97;81.64
75006;BME280;63553;51.814;4.600;2024-02-16T03:02:29;100955.50;;;10.89;81.71
75006;BME280;63553;51.814;4.600;2024-02-16T03:04:54;100953.56;;;10.98;81.51
75006;BME280;63553;51.814;4.600;2024-02-16T03:07:19;100957.81;;;10.95;81.50
75006;BME280;63553;51.814;4.600;2024-02-16T03:09:45;100956.00;;;10.99;81.36
75006;BME280;63553;51.814;4.600;2024-02-16T03:12:11;100959.16;;;11.06;80.98
75006;BME280;63553;51.814;4.600;2024-02-16T03:14:37;100957.84;;;11.12;80.80
75006;BME280;63553;51.814;4.600;2024-02-16T03:17:02;100952.13;;;11.18;80.47
75006;BME280;63553;51.814;4.600;2024-02-16T03:19:29;100953.44;;;11.20;80.48
75006;BME280;63553;51.814;4.600;2024-02-16T03:21:54;100956.88;;;11.17;80.58
75006;BME280;63553;51.814;4.600;2024-02-16T03:24:20;100954.44;;;11.24;80.53
75006;BME280;63553;51.814;4.600;2024-02-16T03:26:45;100951.00;;;11.19;80.16
75006;BME280;63553;51.814;4.600;2024-02-16T03:29:10;100950.00;;;11.23;80.37
75006;BME280;63553;51.814;4.600;2024-02-16T03:31:35;100945.28;;;11.24;80.33
75006;BME280;63553;51.814;4.600;2024-02-16T03:34:01;100950.38;;;11.30;80.60
75006;BME280;63553;51.814;4.600;2024-02-16T03:36:26;100950.84;;;11.24;80.86
75006;BME280;63553;51.814;4.600;2024-02-16T03:38:52;100940.53;;;11.24;80.76
75006;BME280;63553;51.814;4.600;2024-02-16T03:41:22;100947.41;;;11.18;81.08
75006;BME280;63553;51.814;4.600;2024-02-16T03:43:49;100951.31;;;11.17;81.13
75006;BME280;63553;51.814;4.600;2024-02-16T03:46:15;100955.56;;;11.14;81.17
75006;BME280;63553;51.814;4.600;2024-02-16T03:48:40;100954.94;;;11.26;81.08
75006;BME280;63553;51.814;4.600;2024-02-16T03:51:06;100950.47;;;11.08;81.30
75006;BME280;63553;51.814;4.600;2024-02-16T03:53:32;100946.28;;;11.28;80.54
75006;BME280;63553;51.814;4.600;2024-02-16T03:55:57;100953.81;;;11.27;80.94
75006;BME280;63553;51.814;4.600;2024-02-16T03:58:24;100951.66;;;11.24;81.09
75006;BME280;63553;51.814;4.600;2024-02-16T04:00:49;100956.09;;;11.25;80.45
75006;BME280;63553;51.814;4.600;2024-02-16T04:03:15;100966.59;;;11.37;81.47
75006;BME280;63553;51.814;4.600;2024-02-16T04:05:41;100958.06;;;11.25;80.44
75006;BME280;63553;51.814;4.600;2024-02-16T04:08:07;100972.81;;;11.42;79.82
75006;BME280;63553;51.814;4.600;2024-02-16T04:10:33;100969.84;;;11.30;80.33
75006;BME280;63553;51.814;4.600;2024-02-16T04:12:59;100957.41;;;11.28;80.77
75006;BME280;63553;51.814;4.600;2024-02-16T04:15:25;100951.03;;;11.27;80.13
75006;BME280;63553;51.814;4.600;2024-02-16T04:17:51;100958.09;;;11.42;82.27
75006;BME280;63553;51.814;4.600;2024-02-16T04:20:16;100951.50;;;11.21;80.56
75006;BME280;63553;51.814;4.600;2024-02-16T04:22:43;100957.75;;;11.43;81.07
75006;BME280;63553;51.814;4.600;2024-02-16T04:25:08;100965.41;;;11.21;80.86
75006;BME280;63553;51.814;4.600;2024-02-16T04:27:37;100963.81;;;11.28;80.90
75006;BME280;63553;51.814;4.600;2024-02-16T04:30:03;100963.44;;;11.12;81.56
75006;BME280;63553;51.814;4.600;2024-02-16T04:32:29;100956.22;;;11.20;81.39
75006;BME280;63553;51.814;4.600;2024-02-16T04:34:54;100957.22;;;11.24;81.18
75006;BME280;63553;51.814;4.600;2024-02-16T04:37:23;100958.91;;;11.42;79.99
75006;BME280;63553;51.814;4.600;2024-02-16T04:39:48;100960.38;;;11.31;80.68
75006;BME280;63553;51.814;4.600;2024-02-16T04:42:14;100964.75;;;11.24;80.86
75006;BME280;63553;51.814;4.600;2024-02-16T04:44:39;100961.50;;;11.39;81.15
75006;BME280;63553;51.814;4.600;2024-02-16T04:47:05;100959.84;;;11.29;80.53
75006;BME280;63553;51.814;4.600;2024-02-16T04:49:30;100959.03;;;11.37;80.37
75006;BME280;63553;51.814;4.600;2024-02-16T04:51:56;100963.81;;;11.37;80.33
75006;BME280;63553;51.814;4.600;2024-02-16T04:54:21;100950.56;;;11.59;80.18
75006;BME280;63553;51.814;4.600;2024-02-16T04:56:48;100966.84;;;11.75;80.42
75006;BME280;63553;51.814;4.600;2024-02-16T04:59:14;100970.94;;;11.86;79.52
75006;BME280;63553;51.814;4.600;2024-02-16T05:01:39;100963.41;;;11.78;80.27
75006;BME280;63553;51.814;4.600;2024-02-16T05:04:04;100970.44;;;11.92;78.69
75006;BME280;63553;51.814;4.600;2024-02-16T05:06:30;100958.63;;;12.04;79.21
75006;BME280;63553;51.814;4.600;2024-02-16T05:08:56;100973.69;;;12.03;79.11
75006;BME280;63553;51.814;4.600;2024-02-16T05:11:22;100974.22;;;12.05;78.09
75006;BME280;63553;51.814;4.600;2024-02-16T05:13:50;100975.50;;;12.16;79.99
75006;BME280;63553;51.814;4.600;2024-02-16T05:16:15;100975.53;;;11.82;79.36
75006;BME280;63553;51.814;4.600;2024-02-16T05:18:40;100966.31;;;12.15;79.74
75006;BME280;63553;51.814;4.600;2024-02-16T05:21:06;100972.41;;;12.26;78.11
75006;BME280;63553;51.814;4.600;2024-02-16T05:23:31;100970.72;;;12.42;77.85
75006;BME280;63553;51.814;4.600;2024-02-16T05:25:57;100973.50;;;12.42;78.04
75006;BME280;63553;51.814;4.600;2024-02-16T05:28:22;100970.25;;;12.23;77.75
75006;BME280;63553;51.814;4.600;2024-02-16T05:30:47;100959.91;;;12.41;78.24
75006;BME280;63553;51.814;4.600;2024-02-16T05:33:13;100964.78;;;12.52;78.42
75006;BME280;63553;51.814;4.600;2024-02-16T05:35:39;100958.38;;;12.52;78.20
75006;BME280;63553;51.814;4.600;2024-02-16T05:38:06;100965.78;;;12.94;79.94
75006;BME280;63553;51.814;4.600;2024-02-16T05:40:46;100969.38;;;12.48;76.67
75006;BME280;63553;51.814;4.600;2024-02-16T05:43:19;100974.59;;;12.67;77.89
75006;BME280;63553;51.814;4.600;2024-02-16T05:45:45;100974.31;;;12.43;77.98
75006;BME280;63553;51.814;4.600;2024-02-16T05:48:12;100985.28;;;12.65;77.85
75006;BME280;63553;51.814;4.600;2024-02-16T05:50:37;100988.97;;;12.77;77.09
75006;BME280;63553;51.814;4.600;2024-02-16T05:53:03;100983.47;;;12.60;77.57
75006;BME280;63553;51.814;4.600;2024-02-16T05:55:28;100983.72;;;12.85;79.30
75006;BME280;63553;51.814;4.600;2024-02-16T05:57:54;100989.00;;;12.69;76.84
75006;BME280;63553;51.814;4.600;2024-02-16T06:00:20;100996.66;;;12.25;78.24
75006;BME280;63553;51.814;4.600;2024-02-16T06:02:46;100996.88;;;12.75;80.19
75006;BME280;63553;51.814;4.600;2024-02-16T06:05:12;100992.53;;;12.40;78.09
75006;BME280;63553;51.814;4.600;2024-02-16T06:07:38;101002.03;;;12.39;79.18
75006;BME280;63553;51.814;4.600;2024-02-16T06:10:04;101006.13;;;12.59;78.81
75006;BME280;63553;51.814;4.600;2024-02-16T06:12:32;101002.91;;;12.22;78.96
75006;BME280;63553;51.814;4.600;2024-02-16T06:14:58;101000.25;;;12.17;79.47
75006;BME280;63553;51.814;4.600;2024-02-16T06:17:23;101017.50;;;12.11;79.52
75006;BME280;63553;51.814;4.600;2024-02-16T06:19:49;101024.84;;;11.81;80.28
75006;BME280;63553;51.814;4.600;2024-02-16T06:22:15;101017.97;;;11.87;80.24
75006;BME280;63553;51.814;4.600;2024-02-16T06:24:40;101026.16;;;11.84;80.81
75006;BME280;63553;51.814;4.600;2024-02-16T06:27:05;101021.59;;;11.88;82.17
75006;BME280;63553;51.814;4.600;2024-02-16T06:29:33;101024.69;;;11.86;81.42
75006;BME280;63553;51.814;4.600;2024-02-16T06:31:59;101015.19;;;12.21;82.16
75006;BME280;63553;51.814;4.600;2024-02-16T06:34:24;101023.38;;;11.92;80.33
75006;BME280;63553;51.814;4.600;2024-02-16T06:36:50;101033.06;;;11.95;81.01
75006;BME280;63553;51.814;4.600;2024-02-16T06:39:16;101032.88;;;12.00;82.26
75006;BME280;63553;51.814;4.600;2024-02-16T06:41:46;101028.78;;;12.06;81.61
75006;BME280;63553;51.814;4.600;2024-02-16T06:44:13;101043.06;;;11.87;81.80
75006;BME280;63553;51.814;4.600;2024-02-16T06:46:38;101037.31;;;11.92;81.76
75006;BME280;63553;51.814;4.600;2024-02-16T06:49:03;101045.19;;;11.90;82.26
75006;BME280;63553;51.814;4.600;2024-02-16T06:51:29;101046.03;;;12.16;83.29
75006;BME280;63553;51.814;4.600;2024-02-16T06:53:54;101043.19;;;11.91;81.88
75006;BME280;63553;51.814;4.600;2024-02-16T06:56:20;101054.84;;;11.84;82.35
75006;BME280;63553;51.814;4.600;2024-02-16T06:58:46;101048.13;;;11.85;82.49
75006;BME280;63553;51.814;4.600;2024-02-16T07:01:16;101049.41;;;11.79;82.53
75006;BME280;63553;51.814;4.600;2024-02-16T07:03:43;101061.72;;;11.87;83.02
75006;BME280;63553;51.814;4.600;2024-02-16T07:06:09;101056.34;;;11.90;83.01
75006;BME280;63553;51.814;4.600;2024-02-16T07:08:43;101059.97;;;12.08;82.24
75006;BME280;63553;51.814;4.600;2024-02-16T07:11:09;101068.50;;;12.11;82.91
75006;BME280;63553;51.814;4.600;2024-02-16T07:13:37;101081.78;;;12.23;82.50
75006;BME280;63553;51.814;4.600;2024-02-16T07:16:03;101080.94;;;12.57;81.62
75006;BME280;63553;51.814;4.600;2024-02-16T07:18:29;101081.44;;;12.42;81.28
75006;BME280;63553;51.814;4.600;2024-02-16T07:20:55;101088.31;;;12.36;81.65
75006;BME280;63553;51.814;4.600;2024-02-16T07:23:20;101091.09;;;12.61;82.07
75006;BME280;63553;51.814;4.600;2024-02-16T07:25:46;101097.19;;;12.55;80.68
75006;BME280;63553;51.814;4.600;2024-02-16T07:28:11;101094.88;;;12.57;80.87
75006;BME280;63553;51.814;4.600;2024-02-16T07:30:36;101099.09;;;12.80;80.64
75006;BME280;63553;51.814;4.600;2024-02-16T07:33:06;101100.88;;;13.10;80.95
75006;BME280;63553;51.814;4.600;2024-02-16T07:35:35;101100.88;;;13.10;79.67
75006;BME280;63553;51.814;4.600;2024-02-16T07:38:04;101118.72;;;13.35;80.16
75006;BME280;63553;51.814;4.600;2024-02-16T07:40:29;101110.72;;;13.54;80.17
75006;BME280;63553;51.814;4.600;2024-02-16T07:42:56;101119.50;;;13.44;78.99
75006;BME280;63553;51.814;4.600;2024-02-16T07:45:21;101126.50;;;13.59;78.87
75006;BME280;63553;51.814;4.600;2024-02-16T07:47:47;101121.97;;;13.37;79.26
75006;BME280;63553;51.814;4.600;2024-02-16T07:50:12;101124.09;;;13.40;79.70
75006;BME280;63553;51.814;4.600;2024-02-16T07:52:38;101123.47;;;14.02;79.44
75006;BME280;63553;51.814;4.600;2024-02-16T07:55:05;101128.22;;;13.80;79.20
75006;BME280;63553;51.814;4.600;2024-02-16T07:57:31;101141.03;;;14.40;78.02
75006;BME280;63553;51.814;4.600;2024-02-16T07:59:56;101133.38;;;14.70;77.54
75006;BME280;63553;51.814;4.600;2024-02-16T08:02:21;101133.72;;;15.01;76.59
75006;BME280;63553;51.814;4.600;2024-02-16T08:04:48;101141.00;;;14.81;77.60
75006;BME280;63553;51.814;4.600;2024-02-16T08:07:13;101137.84;;;15.16;76.41
75006;BME280;63553;51.814;4.600;2024-02-16T08:09:39;101135.72;;;14.80;75.51
75006;BME280;63553;51.814;4.600;2024-02-16T08:12:04;101138.13;;;14.90;76.65
75006;BME280;63553;51.814;4.600;2024-02-16T08:14:34;101138.66;;;14.83;76.51
75006;BME280;63553;51.814;4.600;2024-02-16T08:17:00;101147.94;;;14.96;75.48
75006;BME280;63553;51.814;4.600;2024-02-16T08:19:32;101143.91;;;14.85;75.96
75006;BME280;63553;51.814;4.600;2024-02-16T08:22:01;101153.28;;;14.68;75.87
75006;BME280;63553;51.814;4.600;2024-02-16T08:24:27;101163.66;;;14.68;76.76
75006;BME280;63553;51.814;4.600;2024-02-16T08:26:52;101163.19;;;14.45;77.03
75006;BME280;63553;51.814;4.600;2024-02-16T08:29:18;101177.44;;;14.73;75.82
75006;BME280;63553;51.814;4.600;2024-02-16T08:31:43;101175.53;;;14.85;74.46
75006;BME280;63553;51.814;4.600;2024-02-16T08:34:09;101178.41;;;14.56;76.97
75006;BME280;63553;51.814;4.600;2024-02-16T08:36:35;101174.28;;;14.04;78.46
75006;BME280;63553;51.814;4.600;2024-02-16T08:39:01;101182.97;;;14.40;77.66
75006;BME280;63553;51.814;4.600;2024-02-16T08:41:26;101188.00;;;14.17;77.31
75006;BME280;63553;51.814;4.600;2024-02-16T08:43:52;101188.38;;;14.45;77.42
75006;BME280;63553;51.814;4.600;2024-02-16T08:46:17;101199.72;;;14.11;79.22
75006;BME280;63553;51.814;4.600;2024-02-16T08:48:44;101212.75;;;14.65;76.69
75006;BME280;63553;51.814;4.600;2024-02-16T08:51:10;101211.38;;;14.51;77.24
75006;BME280;63553;51.814;4.600;2024-02-16T08:53:36;101213.78;;;15.02;75.38
75006;BME280;63553;51.814;4.600;2024-02-16T08:56:01;101215.94;;;14.76;76.57
75006;BME280;63553;51.814;4.600;2024-02-16T08:58:27;101219.38;;;15.02;74.36
75006;BME280;63553;51.814;4.600;2024-02-16T09:00:52;101219.47;;;15.06;75.17
75006;BME280;63553;51.814;4.600;2024-02-16T09:03:17;101226.94;;;14.60;76.92
75006;BME280;63553;51.814;4.600;2024-02-16T09:05:42;101229.63;;;14.98;75.85
75006;BME280;63553;51.814;4.600;2024-02-16T09:08:09;101239.19;;;15.30;74.42
75006;BME280;63553;51.814;4.600;2024-02-16T09:10:34;101236.78;;;15.08;75.81
75006;BME280;63553;51.814;4.600;2024-02-16T09:13:00;101238.81;;;15.19;73.86
75006;BME280;63553;51.814;4.600;2024-02-16T09:15:25;101244.25;;;15.36;74.78
75006;BME280;63553;51.814;4.600;2024-02-16T09:17:51;101252.75;;;15.28;73.54
75006;BME280;63553;51.814;4.600;2024-02-16T09:20:16;101253.16;;;15.18;75.08
75006;BME280;63553;51.814;4.600;2024-02-16T09:22:47;101261.72;;;15.00;75.12
75006;BME280;63553;51.814;4.600;2024-02-16T09:25:14;101260.06;;;14.79;76.31
75006;BME280;63553;51.814;4.600;2024-02-16T09:27:42;101269.28;;;15.21;75.86
75006;BME280;63553;51.814;4.600;2024-02-16T09:30:13;101273.13;;;14.95;74.88
75006;BME280;63553;51.814;4.600;2024-02-16T09:32:41;101273.63;;;14.68;76.95
75006;BME280;63553;51.814;4.600;2024-02-16T09:35:09;101274.13;;;15.12;76.04
75006;BME280;63553;51.814;4.600;2024-02-16T09:37:39;101282.03;;;15.30;75.97
75006;BME280;63553;51.814;4.600;2024-02-16T09:40:05;101296.97;;;15.01;77.05
75006;BME280;63553;51.814;4.600;2024-02-16T09:42:32;101306.94;;;14.90;78.27
75006;BME280;63553;51.814;4.600;2024-02-16T09:45:03;101305.22;;;14.98;77.34
75006;BME280;63553;51.814;4.600;2024-02-16T09:47:30;101306.88;;;15.20;77.29
75006;BME280;63553;51.814;4.600;2024-02-16T09:49:58;101310.25;;;14.84;77.16
75006;BME280;63553;51.814;4.600;2024-02-16T09:52:23;101324.06;;;15.10;77.23
75006;BME280;63553;51.814;4.600;2024-02-16T09:54:49;101336.78;;;15.28;77.03
75006;BME280;63553;51.814;4.600;2024-02-16T09:57:16;101332.25;;;15.35;76.51
75006;BME280;63553;51.814;4.600;2024-02-16T09:59:42;101334.81;;;15.28;76.06
75006;BME280;63553;51.814;4.600;2024-02-16T10:02:08;101347.06;;;15.77;74.96
75006;BME280;63553;51.814;4.600;2024-02-16T10:04:34;101361.03;;;15.65;75.45
75006;BME280;63553;51.814;4.600;2024-02-16T10:06:59;101375.47;;;15.76;75.13
75006;BME280;63553;51.814;4.600;2024-02-16T10:09:26;101366.47;;;15.70;75.27
75006;BME280;63553;51.814;4.600;2024-02-16T10:11:52;101376.09;;;15.61;73.94
75006;BME280;63553;51.814;4.600;2024-02-16T10:14:17;101386.28;;;15.98;73.64
75006;BME280;63553;51.814;4.600;2024-02-16T10:16:45;101395.25;;;16.12;73.09
75006;BME280;63553;51.814;4.600;2024-02-16T10:19:11;101397.00;;;16.17;72.96
75006;BME280;63553;51.814;4.600;2024-02-16T10:21:37;101407.25;;;16.12;72.94
75006;BME280;63553;51.814;4.600;2024-02-16T10:24:07;101399.13;;;16.20;72.44
75006;BME280;63553;51.814;4.600;2024-02-16T10:26:37;101409.13;;;16.08;73.21
75006;BME280;63553;51.814;4.600;2024-02-16T10:29:04;101408.13;;;15.92;74.21
75006;BME280;63553;51.814;4.600;2024-02-16T10:31:30;101423.97;;;15.76;75.02
75006;BME280;63553;51.814;4.600;2024-02-16T10:33:58;101422.47;;;15.79;74.88
75006;BME280;63553;51.814;4.600;2024-02-16T10:36:28;101421.44;;;15.13;76.67
75006;BME280;63553;51.814;4.600;2024-02-16T10:38:54;101436.28;;;15.63;74.96
75006;BME280;63553;51.814;4.600;2024-02-16T10:41:24;101435.81;;;15.61;75.65
75006;BME280;63553;51.814;4.600;2024-02-16T10:43:53;101447.94;;;15.86;73.26
75006;BME280;63553;51.814;4.600;2024-02-16T10:46:19;101444.34;;;15.85;74.93
75006;BME280;63553;51.814;4.600;2024-02-16T10:48:45;101455.88;;;15.63;73.16
75006;BME280;63553;51.814;4.600;2024-02-16T10:51:11;101444.50;;;15.39;75.72
75006;BME280;63553;51.814;4.600;2024-02-16T10:53:38;101443.16;;;14.86;77.36
75006;BME280;63553;51.814;4.600;2024-02-16T10:56:06;101439.81;;;15.72;75.83
75006;BME280;63553;51.814;4.600;2024-02-16T10:58:32;101436.47;;;15.58;75.54
75006;BME280;63553;51.814;4.600;2024-02-16T11:01:08;101459.75;;;15.21;76.05
75006;BME280;63553;51.814;4.600;2024-02-16T11:03:38;101456.94;;;14.91;78.58
75006;BME280;63553;51.814;4.600;2024-02-16T11:06:14;101461.09;;;15.15;76.60
75006;BME280;63553;51.814;4.600;2024-02-16T11:08:40;101476.66;;;14.66;77.01
75006;BME280;63553;51.814;4.600;2024-02-16T11:11:05;101498.63;;;14.04;82.00
75006;BME280;63553;51.814;4.600;2024-02-16T11:13:33;101483.66;;;13.91;81.44
75006;BME280;63553;51.814;4.600;2024-02-16T11:16:00;101485.44;;;14.47;80.45
75006;BME280;63553;51.814;4.600;2024-02-16T11:18:27;101494.25;;;15.42;78.01
75006;BME280;63553;51.814;4.600;2024-02-16T11:20:53;101494.88;;;15.97;75.70
75006;BME280;63553;51.814;4.600;2024-02-16T11:23:27;101501.41;;;16.22;74.66
75006;BME280;63553;51.814;4.600;2024-02-16T11:25:53;101515.13;;;15.82;72.93
75006;BME280;63553;51.814;4.600;2024-02-16T11:28:19;101510.09;;;16.29;73.00
75006;BME280;63553;51.814;4.600;2024-02-16T11:30:45;101522.63;;;16.32;72.86
75006;BME280;63553;51.814;4.600;2024-02-16T11:33:11;101513.66;;;16.38;72.67
75006;BME280;63553;51.814;4.600;2024-02-16T11:35:36;101521.53;;;16.45;72.27
75006;BME280;63553;51.814;4.600;2024-02-16T11:38:01;101518.94;;;16.52;71.32
75006;BME280;63553;51.814;4.600;2024-02-16T11:40:27;101541.78;;;16.50;71.54
75006;BME280;63553;51.814;4.600;2024-02-16T11:43:01;101550.66;;;16.52;71.52
75006;BME280;63553;51.814;4.600;2024-02-16T11:45:27;101550.59;;;16.61;71.27
75006;BME280;63553;51.814;4.600;2024-02-16T11:48:08;101547.38;;;16.50;71.47
75006;BME280;63553;51.814;4.600;2024-02-16T11:50:35;101558.47;;;16.47;71.70
75006;BME280;63553;51.814;4.600;2024-02-16T11:53:00;101558.00;;;16.45;71.30
75006;BME280;63553;51.814;4.600;2024-02-16T11:55:25;101563.00;;;16.60;71.17
75006;BME280;63553;51.814;4.600;2024-02-16T11:57:51;101560.81;;;16.65;71.07
75006;BME280;63553;51.814;4.600;2024-02-16T12:00:16;101569.09;;;16.62;71.11
75006;BME280;63553;51.814;4.600;2024-02-16T12:02:42;101570.47;;;16.56;71.31
75006;BME280;63553;51.814;4.600;2024-02-16T12:05:07;101574.03;;;16.65;70.86
75006;BME280;63553;51.814;4.600;2024-02-16T12:07:37;101578.09;;;16.55;71.13
75006;BME280;63553;51.814;4.600;2024-02-16T12:10:06;101575.41;;;16.59;71.04
75006;BME280;63553;51.814;4.600;2024-02-16T12:12:32;101585.19;;;16.53;70.53
75006;BME280;63553;51.814;4.600;2024-02-16T12:14:58;101587.56;;;16.63;71.15
75006;BME280;63553;51.814;4.600;2024-02-16T12:17:23;101589.69;;;16.66;70.66
75006;BME280;63553;51.814;4.600;2024-02-16T12:19:50;101579.41;;;16.70;70.60
75006;BME280;63553;51.814;4.600;2024-02-16T12:22:22;101593.03;;;16.80;70.35
75006;BME280;63553;51.814;4.600;2024-02-16T12:24:50;101602.72;;;16.71;70.64
75006;BME280;63553;51.814;4.600;2024-02-16T12:27:16;101604.88;;;16.86;69.94
75006;BME280;63553;51.814;4.600;2024-02-16T12:29:41;101597.59;;;16.85;70.37
75006;BME280;63553;51.814;4.600;2024-02-16T12:32:07;101606.88;;;16.85;70.21
75006;BME280;63553;51.814;4.600;2024-02-16T12:34:36;101606.78;;;16.94;69.83
75006;BME280;63553;51.814;4.600;2024-02-16T12:37:07;101617.53;;;16.92;70.04
75006;BME280;63553;51.814;4.600;2024-02-16T12:39:33;101618.97;;;16.98;69.58
75006;BME280;63553;51.814;4.600;2024-02-16T12:41:59;101611.69;;;16.97;69.41
75006;BME280;63553;51.814;4.600;2024-02-16T12:44:24;101618.28;;;17.01;69.69